Time;durP1;ratioP1;P1;durP2;ratioP2;P2;SDS_P1;SDS_P2;PMS_P1;PMS_P2;Temp;Humidity;BMP_temperature;BMP_pressure;BME280_temperature;BME280_humidity;BME280_pressure;Samples;Min_cycle;Max_cycle;Signal;HPM_P1;HPM_P2
2023/08/07 00:02:09;;;;;;;9.60;6.53;;;;;;;;;;5016203;28;20037;-78
2023/08/07 00:04:35;;;;;;;11.43;6.05;;;;;;;;;;5015475;28;20057;-79
2023/08/07 00:07:02;;;;;;;11.02;6.95;;;;;;;;;;5015134;28;20382;-78
2023/08/07 00:09:28;;;;;;;11.88;6.70;;;;;;;;;;5015910;28;20116;-78
2023/08/07 00:11:54;;;;;;;10.68;7.32;;;;;;;;;;5014561;28;20057;-79
2023/08/07 00:14:20;;;;;;;11.18;6.78;;;;;;;;;;5013919;28;20107;-78
2023/08/07 00:16:46;;;;;;;12.73;6.68;;;;;;;;;;5015138;28;20041;-79
2023/08/07 00:19:12;;;;;;;9.07;6.32;;;;;;;;;;5015551;28;20042;-78
2023/08/07 00:21:38;;;;;;;10.20;6.35;;;;;;;;;;5016305;28;20128;-78
2023/08/07 00:24:05;;;;;;;11.43;7.03;;;;;;;;;;5018854;28;20524;-79
2023/08/07 00:26:32;;;;;;;13.32;7.35;;;;;;;;;;5017531;28;20052;-79
2023/08/07 00:28:58;;;;;;;11.00;7.03;;;;;;;;;;5007509;28;20466;-78
2023/08/07 00:31:24;;;;;;;10.52;6.65;;;;;;;;;;5014567;28;20046;-78
2023/08/07 00:33:53;;;;;;;11.18;7.32;;;;;;;;;;5017041;28;20052;-80
2023/08/07 00:36:20;;;;;;;14.43;7.80;;;;;;;;;;5019593;28;20042;-79
2023/08/07 00:38:46;;;;;;;13.10;7.50;;;;;;;;;;5020074;28;20052;-79
2023/08/07 00:41:12;;;;;;;9.98;7.03;;;;;;;;;;5019485;28;20050;-80
2023/08/07 00:43:38;;;;;;;9.20;6.35;;;;;;;;;;5019231;28;20122;-79
2023/08/07 00:46:04;;;;;;;11.20;7.38;;;;;;;;;;5018858;28;20037;-79
2023/08/07 00:48:30;;;;;;;9.98;6.43;;;;;;;;;;5017440;28;20050;-79
2023/08/07 00:50:56;;;;;;;11.60;6.57;;;;;;;;;;5018719;28;20049;-78
2023/08/07 00:53:22;;;;;;;9.77;6.97;;;;;;;;;;5017395;28;20050;-79
2023/08/07 00:55:48;;;;;;;10.25;6.60;;;;;;;;;;5021189;28;20403;-80
2023/08/07 00:58:14;;;;;;;9.07;6.32;;;;;;;;;;5018705;28;20511;-78
2023/08/07 01:00:42;;;;;;;10.75;6.80;;;;;;;;;;5011110;28;20049;-79
2023/08/07 01:03:08;;;;;;;10.45;6.30;;;;;;;;;;4999799;28;20516;-79
2023/08/07 01:05:34;;;;;;;9.63;6.00;;;;;;;;;;5017004;28;20048;-79
2023/08/07 01:08:01;;;;;;;11.07;6.68;;;;;;;;;;5017584;28;20037;-79
2023/08/07 01:10:39;;;;;;;12.65;6.43;;;;;;;;;;5014716;28;20049;-79
2023/08/07 01:13:14;;;;;;;8.60;5.72;;;;;;;;;;5016749;28;20042;-79
2023/08/07 01:15:41;;;;;;;11.43;6.80;;;;;;;;;;5015122;28;20132;-79
2023/08/07 01:18:08;;;;;;;9.93;6.15;;;;;;;;;;5008253;28;20058;-78
2023/08/07 01:20:34;;;;;;;10.65;6.45;;;;;;;;;;4995099;28;20385;-78
2023/08/07 01:23:00;;;;;;;8.73;5.65;;;;;;;;;;5008346;28;20049;-78
2023/08/07 01:25:27;;;;;;;9.90;5.63;;;;;;;;;;5014507;28;20042;-78
2023/08/07 01:27:56;;;;;;;11.73;6.55;;;;;;;;;;5013993;28;20497;-77
2023/08/07 01:30:36;;;;;;;8.48;5.20;;;;;;;;;;5014533;28;20049;-78
2023/08/07 01:33:09;;;;;;;9.20;5.30;;;;;;;;;;5013928;28;20412;-78
2023/08/07 01:35:36;;;;;;;10.15;5.78;;;;;;;;;;5013695;28;20046;-78
2023/08/07 01:38:02;;;;;;;10.18;6.15;;;;;;;;;;5013165;28;20095;-78
2023/08/07 01:40:29;;;;;;;9.25;5.93;;;;;;;;;;5012942;28;20385;-78
2023/08/07 01:42:55;;;;;;;11.73;5.80;;;;;;;;;;5012722;28;20623;-78
2023/08/07 01:45:24;;;;;;;10.15;5.72;;;;;;;;;;5013518;28;20097;-79
2023/08/07 01:47:52;;;;;;;11.50;6.03;;;;;;;;;;5014337;28;20400;-78
2023/08/07 01:50:18;;;;;;;15.00;6.40;;;;;;;;;;5013939;28;20500;-78
2023/08/07 01:52:44;;;;;;;10.48;5.95;;;;;;;;;;5013628;28;20137;-77
2023/08/07 01:55:10;;;;;;;10.40;5.82;;;;;;;;;;5024581;28;20142;-78
2023/08/07 01:57:36;;;;;;;8.82;5.50;;;;;;;;;;5016170;28;20472;-78
2023/08/07 02:00:03;;;;;;;11.65;5.57;;;;;;;;;;5013902;28;20049;-78
2023/08/07 02:02:29;;;;;;;8.80;5.22;;;;;;;;;;5029252;28;20049;-77
2023/08/07 02:04:55;;;;;;;8.57;5.38;;;;;;;;;;5017120;28;20045;-78
2023/08/07 02:07:21;;;;;;;10.07;5.53;;;;;;;;;;5025508;28;20041;-77
2023/08/07 02:09:47;;;;;;;10.07;5.28;;;;;;;;;;5012380;28;20061;-78
2023/08/07 02:12:13;;;;;;;10.98;5.30;;;;;;;;;;5012499;28;20045;-77
2023/08/07 02:14:39;;;;;;;9.82;4.95;;;;;;;;;;5018487;28;20133;-78
2023/08/07 02:17:05;;;;;;;9.35;5.03;;;;;;;;;;5014264;28;20117;-78
2023/08/07 02:19:32;;;;;;;10.00;5.40;;;;;;;;;;5013640;28;20038;-78
2023/08/07 02:21:58;;;;;;;10.65;4.93;;;;;;;;;;5013832;28;20415;-77
2023/08/07 02:24:24;;;;;;;10.32;4.75;;;;;;;;;;5012926;28;20049;-77
2023/08/07 02:26:50;;;;;;;10.07;4.45;;;;;;;;;;5013133;28;20196;-78
2023/08/07 02:29:16;;;;;;;10.50;4.53;;;;;;;;;;5013684;28;20654;-79
2023/08/07 02:31:42;;;;;;;11.45;4.20;;;;;;;;;;5013526;28;20042;-78
2023/08/07 02:34:08;;;;;;;10.02;4.47;;;;;;;;;;5013030;28;20054;-78
2023/08/07 02:36:34;;;;;;;11.32;4.28;;;;;;;;;;5012403;28;20050;-78
2023/08/07 02:39:00;;;;;;;13.57;4.38;;;;;;;;;;5015720;28;20049;-78
2023/08/07 02:41:26;;;;;;;13.20;4.18;;;;;;;;;;5017255;28;20046;-78
2023/08/07 02:43:52;;;;;;;11.32;3.72;;;;;;;;;;5017150;28;20141;-77
2023/08/07 02:46:18;;;;;;;12.57;3.55;;;;;;;;;;5007440;28;20046;-78
2023/08/07 02:48:44;;;;;;;14.75;4.05;;;;;;;;;;5012995;28;20483;-78
2023/08/07 02:51:10;;;;;;;8.77;3.83;;;;;;;;;;5015928;28;20072;-78
2023/08/07 02:53:36;;;;;;;10.57;3.20;;;;;;;;;;5014540;28;20033;-78
2023/08/07 02:56:02;;;;;;;13.55;3.92;;;;;;;;;;5015301;28;20038;-78
2023/08/07 02:58:28;;;;;;;12.63;3.28;;;;;;;;;;5016655;28;20037;-78
2023/08/07 03:00:55;;;;;;;14.13;3.40;;;;;;;;;;5015988;28;20072;-78
2023/08/07 03:03:21;;;;;;;10.82;3.15;;;;;;;;;;5015152;28;20464;-78
2023/08/07 03:05:51;;;;;;;10.32;3.20;;;;;;;;;;5014896;28;20042;-78
2023/08/07 03:08:17;;;;;;;13.63;3.30;;;;;;;;;;5015727;28;20045;-78
2023/08/07 03:10:43;;;;;;;13.38;3.22;;;;;;;;;;5021068;28;20049;-78
2023/08/07 03:13:09;;;;;;;15.23;3.30;;;;;;;;;;5014778;28;20050;-78
2023/08/07 03:15:35;;;;;;;13.30;3.38;;;;;;;;;;5009648;28;20103;-78
2023/08/07 03:18:01;;;;;;;11.65;2.78;;;;;;;;;;5015103;28;20117;-78
2023/08/07 03:20:27;;;;;;;15.63;3.28;;;;;;;;;;5014447;28;20132;-78
2023/08/07 03:22:53;;;;;;;13.77;3.10;;;;;;;;;;5024189;28;20072;-78
2023/08/07 03:25:19;;;;;;;12.68;2.97;;;;;;;;;;5015994;28;20504;-78
2023/08/07 03:27:45;;;;;;;15.00;3.15;;;;;;;;;;5013939;28;20034;-78
2023/08/07 03:30:11;;;;;;;13.05;3.17;;;;;;;;;;5006946;28;20045;-78
2023/08/07 03:32:37;;;;;;;12.02;3.30;;;;;;;;;;5015369;28;20041;-78
2023/08/07 03:35:03;;;;;;;10.48;2.80;;;;;;;;;;5014201;28;20489;-78
2023/08/07 03:37:29;;;;;;;15.00;3.28;;;;;;;;;;5014169;28;20046;-78
2023/08/07 03:39:55;;;;;;;11.48;2.95;;;;;;;;;;5015113;28;20049;-78
2023/08/07 03:42:22;;;;;;;12.18;3.10;;;;;;;;;;5014692;28;20049;-78
2023/08/07 03:44:48;;;;;;;16.08;3.15;;;;;;;;;;5014328;28;20069;-78
2023/08/07 03:47:14;;;;;;;13.48;2.85;;;;;;;;;;5012994;28;20046;-79
2023/08/07 03:49:40;;;;;;;13.07;3.20;;;;;;;;;;5014752;28;20053;-78
2023/08/07 03:52:06;;;;;;;11.98;2.90;;;;;;;;;;5017959;28;20045;-78
2023/08/07 03:54:32;;;;;;;12.43;3.08;;;;;;;;;;5018938;28;20042;-78
2023/08/07 03:56:58;;;;;;;13.07;3.10;;;;;;;;;;5016088;28;20418;-79
2023/08/07 03:59:24;;;;;;;10.50;2.95;;;;;;;;;;5019995;28;20128;-78
2023/08/07 04:01:50;;;;;;;16.42;3.25;;;;;;;;;;5015621;28;20053;-78
2023/08/07 04:04:16;;;;;;;11.45;3.03;;;;;;;;;;5016661;28;20054;-79
2023/08/07 04:06:43;;;;;;;13.30;3.08;;;;;;;;;;5015203;28;20034;-79
2023/08/07 04:09:10;;;;;;;13.35;3.30;;;;;;;;;;5014575;28;20042;-78
2023/08/07 04:11:36;;;;;;;16.52;3.38;;;;;;;;;;5016530;28;20108;-78
2023/08/07 04:14:03;;;;;;;14.85;3.78;;;;;;;;;;5015055;28;20081;-79
2023/08/07 04:16:31;;;;;;;13.80;3.63;;;;;;;;;;5011069;28;20046;-79
2023/08/07 04:18:57;;;;;;;16.13;2.90;;;;;;;;;;5014171;28;20492;-79
2023/08/07 04:21:23;;;;;;;15.73;3.58;;;;;;;;;;5015236;28;20060;-79
2023/08/07 04:23:49;;;;;;;12.70;2.88;;;;;;;;;;5008565;28;20061;-79
2023/08/07 04:26:15;;;;;;;20.58;3.35;;;;;;;;;;5013116;28;20060;-79
2023/08/07 04:28:41;;;;;;;15.20;3.25;;;;;;;;;;4996701;28;20058;-78
2023/08/07 04:31:08;;;;;;;14.07;3.28;;;;;;;;;;4996272;28;20053;-79
2023/08/07 04:33:34;;;;;;;15.38;3.35;;;;;;;;;;4997722;28;20046;-79
2023/08/07 04:36:00;;;;;;;20.55;3.42;;;;;;;;;;5015999;28;20045;-79
2023/08/07 04:38:26;;;;;;;17.35;3.47;;;;;;;;;;5017478;28;20107;-80
2023/08/07 04:40:52;;;;;;;10.57;2.60;;;;;;;;;;5016033;28;20081;-80
2023/08/07 04:43:21;;;;;;;13.07;3.55;;;;;;;;;;5017368;28;20049;-80
2023/08/07 04:45:47;;;;;;;11.52;3.30;;;;;;;;;;5014768;28;20053;-80
2023/08/07 04:48:14;;;;;;;14.38;2.58;;;;;;;;;;5017099;28;20050;-80
2023/08/07 04:50:40;;;;;;;10.85;2.35;;;;;;;;;;5023824;28;20124;-80
2023/08/07 04:53:06;;;;;;;7.80;2.50;;;;;;;;;;5023188;28;20053;-79
2023/08/07 04:55:32;;;;;;;10.57;2.90;;;;;;;;;;5016473;28;20049;-79
2023/08/07 04:57:58;;;;;;;10.40;2.67;;;;;;;;;;5014477;28;20499;-79
2023/08/07 05:00:25;;;;;;;10.07;2.60;;;;;;;;;;5015962;28;20057;-80
2023/08/07 05:02:51;;;;;;;10.80;2.80;;;;;;;;;;5016549;28;20096;-79
2023/08/07 05:05:21;;;;;;;9.38;2.78;;;;;;;;;;5015899;28;20049;-79
2023/08/07 05:07:50;;;;;;;9.55;2.63;;;;;;;;;;5015929;28;20107;-79
2023/08/07 05:10:16;;;;;;;8.88;3.17;;;;;;;;;;5017258;28;20083;-79
2023/08/07 05:12:42;;;;;;;11.95;3.10;;;;;;;;;;5032783;28;20098;-79
2023/08/07 05:15:08;;;;;;;10.93;2.83;;;;;;;;;;5026491;28;20077;-79
2023/08/07 05:17:34;;;;;;;9.98;2.53;;;;;;;;;;5020781;28;20042;-80
2023/08/07 05:20:00;;;;;;;10.27;3.00;;;;;;;;;;5031861;28;20041;-80
2023/08/07 05:22:26;;;;;;;9.35;2.92;;;;;;;;;;5019126;28;20034;-80
2023/08/07 05:24:52;;;;;;;10.93;3.03;;;;;;;;;;5019307;28;20064;-81
2023/08/07 05:27:18;;;;;;;8.90;2.60;;;;;;;;;;5020331;28;20115;-80
2023/08/07 05:29:45;;;;;;;11.77;2.90;;;;;;;;;;5020149;28;20578;-80
2023/08/07 05:32:11;;;;;;;10.60;2.95;;;;;;;;;;5018726;28;20046;-80
2023/08/07 05:34:37;;;;;;;14.10;3.28;;;;;;;;;;5019837;28;20060;-81
2023/08/07 05:37:04;;;;;;;12.07;3.55;;;;;;;;;;5034392;28;20072;-81
2023/08/07 05:39:30;;;;;;;10.63;2.80;;;;;;;;;;5026850;28;20436;-81
2023/08/07 05:41:57;;;;;;;13.68;3.20;;;;;;;;;;5017918;28;20061;-81
2023/08/07 05:44:26;;;;;;;15.80;3.60;;;;;;;;;;5026418;28;20522;-81
2023/08/07 05:46:53;;;;;;;11.77;3.20;;;;;;;;;;5019492;28;20121;-81
2023/08/07 05:49:19;;;;;;;10.88;3.10;;;;;;;;;;5017973;28;20049;-80
2023/08/07 05:51:45;;;;;;;11.82;3.65;;;;;;;;;;5019065;28;20054;-81
2023/08/07 05:54:11;;;;;;;13.23;3.40;;;;;;;;;;5018148;28;20073;-81
2023/08/07 05:56:38;;;;;;;13.73;3.17;;;;;;;;;;5017849;28;20103;-81
2023/08/07 05:59:04;;;;;;;11.70;3.45;;;;;;;;;;5015973;28;20407;-81
2023/08/07 06:01:31;;;;;;;13.07;3.20;;;;;;;;;;5018455;28;20068;-80
2023/08/07 06:04:00;;;;;;;12.23;3.35;;;;;;;;;;5009002;28;20358;-80
2023/08/07 06:06:28;;;;;;;13.02;3.50;;;;;;;;;;5014907;28;20052;-81
2023/08/07 06:08:57;;;;;;;12.85;3.38;;;;;;;;;;5016861;28;20049;-80
2023/08/07 06:11:23;;;;;;;12.27;3.15;;;;;;;;;;5012490;28;20053;-78
2023/08/07 06:13:49;;;;;;;13.57;3.25;;;;;;;;;;5018056;28;20100;-79
2023/08/07 06:16:16;;;;;;;16.20;3.50;;;;;;;;;;5015350;28;20049;-79
2023/08/07 06:18:42;;;;;;;11.95;3.15;;;;;;;;;;5034860;28;20054;-78
2023/08/07 06:21:10;;;;;;;14.80;3.60;;;;;;;;;;5019530;28;20050;-79
2023/08/07 06:23:36;;;;;;;16.83;4.22;;;;;;;;;;5019410;28;20121;-78
2023/08/07 06:26:04;;;;;;;15.73;3.67;;;;;;;;;;5014532;28;20488;-79
2023/08/07 06:28:33;;;;;;;15.38;3.30;;;;;;;;;;5020633;28;20049;-79
2023/08/07 06:31:03;;;;;;;14.32;3.55;;;;;;;;;;5021725;28;20393;-79
2023/08/07 06:33:29;;;;;;;14.45;3.75;;;;;;;;;;5022091;28;20129;-79
2023/08/07 06:35:55;;;;;;;13.82;3.35;;;;;;;;;;5019046;28;20054;-77
2023/08/07 06:38:21;;;;;;;13.82;3.75;;;;;;;;;;5019067;28;20077;-77
2023/08/07 06:40:47;;;;;;;12.80;3.00;;;;;;;;;;5017163;28;20504;-77
2023/08/07 06:43:13;;;;;;;10.75;3.00;;;;;;;;;;5017908;28;20117;-77
2023/08/07 06:45:39;;;;;;;12.60;3.20;;;;;;;;;;5016740;28;20584;-76
2023/08/07 06:48:05;;;;;;;17.05;3.63;;;;;;;;;;5008556;28;20145;-77
2023/08/07 06:50:31;;;;;;;15.73;3.38;;;;;;;;;;5010282;28;20508;-77
2023/08/07 06:52:57;;;;;;;10.98;3.20;;;;;;;;;;5014829;28;20042;-77
2023/08/07 06:55:23;;;;;;;13.43;3.30;;;;;;;;;;5018286;28;20500;-78
2023/08/07 06:57:49;;;;;;;12.55;2.97;;;;;;;;;;5016640;28;20400;-77
2023/08/07 07:00:16;;;;;;;17.10;3.30;;;;;;;;;;5017281;28;20049;-77
2023/08/07 07:02:42;;;;;;;12.73;2.92;;;;;;;;;;5019074;28;20054;-78
2023/08/07 07:05:08;;;;;;;11.80;2.90;;;;;;;;;;5018813;28;20129;-77
2023/08/07 07:07:34;;;;;;;13.65;3.53;;;;;;;;;;5019565;28;20570;-77
2023/08/07 07:10:00;;;;;;;13.52;3.15;;;;;;;;;;5017765;28;20085;-80
2023/08/07 07:12:27;;;;;;;14.30;3.38;;;;;;;;;;5018940;28;20416;-78
2023/08/07 07:14:53;;;;;;;13.98;3.38;;;;;;;;;;5017935;28;20507;-77
2023/08/07 07:17:19;;;;;;;12.02;3.25;;;;;;;;;;5016419;28;20050;-78
2023/08/07 07:19:45;;;;;;;14.55;3.40;;;;;;;;;;5019447;28;20057;-77
2023/08/07 07:22:11;;;;;;;10.35;3.33;;;;;;;;;;5019162;28;20445;-78
2023/08/07 07:24:38;;;;;;;13.20;3.22;;;;;;;;;;5007807;28;20042;-77
2023/08/07 07:27:04;;;;;;;11.32;3.05;;;;;;;;;;5014059;28;20044;-77
2023/08/07 07:29:30;;;;;;;10.57;2.80;;;;;;;;;;5014884;28;20115;-79
2023/08/07 07:31:56;;;;;;;15.35;3.30;;;;;;;;;;5006737;28;20057;-78
2023/08/07 07:34:22;;;;;;;14.18;3.15;;;;;;;;;;5010271;28;20350;-78
2023/08/07 07:36:48;;;;;;;13.32;3.20;;;;;;;;;;5015403;28;20480;-78
2023/08/07 07:39:14;;;;;;;15.73;3.28;;;;;;;;;;5015398;28;20104;-77
2023/08/07 07:41:41;;;;;;;9.43;2.80;;;;;;;;;;5016940;28;20053;-78
2023/08/07 07:44:07;;;;;;;11.32;3.00;;;;;;;;;;5012949;28;20056;-77
2023/08/07 07:46:32;;;;;;;12.88;3.10;;;;;;;;;;5011717;28;20042;-78
2023/08/07 07:48:59;;;;;;;10.38;2.55;;;;;;;;;;5014216;28;20037;-78
2023/08/07 07:51:25;;;;;;;11.85;2.60;;;;;;;;;;5014369;28;20122;-77
2023/08/07 07:53:51;;;;;;;12.32;2.90;;;;;;;;;;5016342;28;20062;-78
2023/08/07 07:56:17;;;;;;;11.10;2.70;;;;;;;;;;5015733;28;20037;-78
2023/08/07 07:58:43;;;;;;;10.40;2.70;;;;;;;;;;5015035;28;20045;-78
2023/08/07 08:01:09;;;;;;;9.15;2.17;;;;;;;;;;5015526;28;20396;-79
2023/08/07 08:03:36;;;;;;;9.00;2.25;;;;;;;;;;5015788;28;20551;-78
2023/08/07 08:06:02;;;;;;;12.00;2.40;;;;;;;;;;5012607;28;20033;-78
2023/08/07 08:08:28;;;;;;;10.15;2.00;;;;;;;;;;5014173;28;20104;-78
2023/08/07 08:10:54;;;;;;;10.77;2.35;;;;;;;;;;5013045;28;20050;-80
2023/08/07 08:13:20;;;;;;;11.68;2.47;;;;;;;;;;5012940;28;20097;-78
2023/08/07 08:15:46;;;;;;;11.98;2.42;;;;;;;;;;5016405;28;20046;-79
2023/08/07 08:18:12;;;;;;;9.25;2.13;;;;;;;;;;5015533;28;20049;-78
2023/08/07 08:20:38;;;;;;;11.63;2.75;;;;;;;;;;5013969;28;20060;-78
2023/08/07 08:23:05;;;;;;;9.98;2.67;;;;;;;;;;5014046;28;20041;-78
2023/08/07 08:25:32;;;;;;;10.85;3.13;;;;;;;;;;5015282;28;20037;-78
2023/08/07 08:27:59;;;;;;;10.20;2.70;;;;;;;;;;5015018;28;20054;-78
2023/08/07 08:30:25;;;;;;;11.18;2.78;;;;;;;;;;5016405;28;20404;-79
2023/08/07 08:32:51;;;;;;;10.38;2.55;;;;;;;;;;5016545;28;20129;-77
2023/08/07 08:35:17;;;;;;;9.77;2.95;;;;;;;;;;5013511;28;20144;-76
2023/08/07 08:37:44;;;;;;;11.38;2.72;;;;;;;;;;5010005;28;20481;-78
2023/08/07 08:40:12;;;;;;;11.13;2.47;;;;;;;;;;5009417;28;20078;-77
2023/08/07 08:42:42;;;;;;;7.57;2.08;;;;;;;;;;5015357;28;20136;-78
2023/08/07 08:45:12;;;;;;;8.52;2.40;;;;;;;;;;5014820;28;20060;-78
2023/08/07 08:47:39;;;;;;;6.33;1.97;;;;;;;;;;5014393;28;20475;-78
2023/08/07 08:50:11;;;;;;;7.22;2.08;;;;;;;;;;5013620;28;20311;-78
2023/08/07 08:52:38;;;;;;;10.27;2.47;;;;;;;;;;5015430;28;20421;-79
2023/08/07 08:55:04;;;;;;;12.00;3.00;;;;;;;;;;5013814;28;20049;-78
2023/08/07 08:57:30;;;;;;;9.90;3.00;;;;;;;;;;5013271;28;20125;-78
2023/08/07 08:59:58;;;;;;;10.52;3.10;;;;;;;;;;5012397;28;20412;-77
2023/08/07 09:02:24;;;;;;;10.75;2.80;;;;;;;;;;5016198;28;20060;-78
2023/08/07 09:04:50;;;;;;;15.07;2.90;;;;;;;;;;5011060;28;20439;-78
2023/08/07 09:07:16;;;;;;;12.85;2.83;;;;;;;;;;5011059;28;20042;-78
2023/08/07 09:09:44;;;;;;;15.80;3.05;;;;;;;;;;5012106;28;20112;-77
2023/08/07 09:12:17;;;;;;;14.48;3.00;;;;;;;;;;5013590;28;20046;-78
2023/08/07 09:14:44;;;;;;;8.88;2.70;;;;;;;;;;5014676;28;20510;-77
2023/08/07 09:17:12;;;;;;;12.90;2.90;;;;;;;;;;5014724;28;20046;-77
2023/08/07 09:19:38;;;;;;;14.10;2.90;;;;;;;;;;5014450;28;20105;-78
2023/08/07 09:22:04;;;;;;;11.95;2.88;;;;;;;;;;5011277;28;20112;-77
2023/08/07 09:24:30;;;;;;;12.93;2.80;;;;;;;;;;5006588;28;20053;-78
2023/08/07 09:26:58;;;;;;;11.65;2.60;;;;;;;;;;4996353;28;20042;-78
2023/08/07 09:29:24;;;;;;;12.77;2.88;;;;;;;;;;5013132;28;20054;-79
2023/08/07 09:31:50;;;;;;;11.68;2.80;;;;;;;;;;4996324;28;20078;-78
2023/08/07 09:34:20;;;;;;;10.73;2.53;;;;;;;;;;5014358;28;20049;-78
2023/08/07 09:36:46;;;;;;;9.80;2.72;;;;;;;;;;5015276;28;20053;-78
2023/08/07 09:39:12;;;;;;;9.45;3.15;;;;;;;;;;5012100;28;20049;-75
2023/08/07 09:41:38;;;;;;;15.43;2.70;;;;;;;;;;5013399;28;20045;-78
2023/08/07 09:44:08;;;;;;;11.55;2.70;;;;;;;;;;5009680;28;20408;-77
2023/08/07 09:46:41;;;;;;;8.50;2.40;;;;;;;;;;5008933;28;20105;-76
2023/08/07 09:49:07;;;;;;;12.77;2.40;;;;;;;;;;5011423;28;20060;-78
2023/08/07 09:51:46;;;;;;;9.00;2.10;;;;;;;;;;5013506;28;20038;-75
2023/08/07 09:54:12;;;;;;;10.50;2.78;;;;;;;;;;5012868;28;20045;-77
2023/08/07 09:56:41;;;;;;;10.25;2.30;;;;;;;;;;5011870;28;20046;-76
2023/08/07 09:59:08;;;;;;;7.90;2.25;;;;;;;;;;5011883;28;20551;-77
2023/08/07 10:01:37;;;;;;;6.88;2.22;;;;;;;;;;5000464;28;20060;-77
2023/08/07 10:04:04;;;;;;;9.48;1.95;;;;;;;;;;5005985;28;20049;-77
2023/08/07 10:06:31;;;;;;;10.55;2.33;;;;;;;;;;5013616;28;20511;-78
2023/08/07 10:08:57;;;;;;;9.52;2.13;;;;;;;;;;5012794;28;20096;-78
2023/08/07 10:11:23;;;;;;;9.73;2.03;;;;;;;;;;5011402;28;20473;-77
2023/08/07 10:13:50;;;;;;;8.63;2.00;;;;;;;;;;5012634;28;20038;-76
2023/08/07 10:16:16;;;;;;;9.98;2.40;;;;;;;;;;5009934;28;20038;-77
2023/08/07 10:18:42;;;;;;;13.80;3.20;;;;;;;;;;4990399;28;20054;-77
2023/08/07 10:21:08;;;;;;;15.63;2.67;;;;;;;;;;5011346;28;20599;-77
2023/08/07 10:23:39;;;;;;;13.27;2.67;;;;;;;;;;5010891;28;20155;-79
2023/08/07 10:26:06;;;;;;;10.27;2.53;;;;;;;;;;5009373;28;20046;-77
2023/08/07 10:28:33;;;;;;;8.85;2.97;;;;;;;;;;5011866;28;20046;-77
2023/08/07 10:30:59;;;;;;;9.60;2.60;;;;;;;;;;5013089;28;20420;-78
2023/08/07 10:33:25;;;;;;;9.27;2.38;;;;;;;;;;5013483;28;20484;-78
2023/08/07 10:35:53;;;;;;;8.27;2.22;;;;;;;;;;5010482;28;20072;-77
2023/08/07 10:38:20;;;;;;;11.02;2.50;;;;;;;;;;5013963;28;20046;-78
2023/08/07 10:40:58;;;;;;;10.82;2.90;;;;;;;;;;4995982;28;20085;-78
2023/08/07 10:43:27;;;;;;;8.85;2.60;;;;;;;;;;5013118;28;20042;-77
2023/08/07 10:45:53;;;;;;;11.02;2.50;;;;;;;;;;5013096;28;20125;-77
2023/08/07 10:48:21;;;;;;;9.77;2.10;;;;;;;;;;5011504;28;20183;-77
2023/08/07 10:50:51;;;;;;;10.60;2.38;;;;;;;;;;4997812;28;20046;-77
2023/08/07 10:53:21;;;;;;;12.30;2.35;;;;;;;;;;5008053;28;20485;-78
2023/08/07 10:55:48;;;;;;;13.52;2.60;;;;;;;;;;5012925;28;22366;-79
2023/08/07 10:58:30;;;;;;;11.43;2.40;;;;;;;;;;5011655;28;20041;-78
2023/08/07 11:01:14;;;;;;;9.23;2.65;;;;;;;;;;5012666;28;20432;-78
2023/08/07 11:03:41;;;;;;;13.52;3.00;;;;;;;;;;5016020;28;20041;-78
2023/08/07 11:06:09;;;;;;;9.18;2.38;;;;;;;;;;5015624;28;20050;-78
2023/08/07 11:08:36;;;;;;;10.18;2.55;;;;;;;;;;5015730;28;20041;-77
2023/08/07 11:11:06;;;;;;;9.52;2.40;;;;;;;;;;5015934;28;20050;-77
2023/08/07 11:13:32;;;;;;;12.45;2.42;;;;;;;;;;5014699;28;20048;-77
2023/08/07 11:15:59;;;;;;;12.50;2.80;;;;;;;;;;5015758;28;20050;-77
2023/08/07 11:18:25;;;;;;;10.82;2.67;;;;;;;;;;5011789;28;20405;-77
2023/08/07 11:20:52;;;;;;;9.30;2.15;;;;;;;;;;5013360;28;20046;-77
2023/08/07 11:23:24;;;;;;;10.75;2.53;;;;;;;;;;5015372;28;20046;-78
2023/08/07 11:25:50;;;;;;;10.40;2.40;;;;;;;;;;5011952;28;20046;-79
2023/08/07 11:28:20;;;;;;;11.65;2.65;;;;;;;;;;5015144;28;20049;-79
2023/08/07 11:30:47;;;;;;;9.52;2.15;;;;;;;;;;5013224;28;20048;-77
2023/08/07 11:33:14;;;;;;;15.35;2.30;;;;;;;;;;5015849;28;20042;-78
2023/08/07 11:35:43;;;;;;;9.52;1.95;;;;;;;;;;5015659;28;20156;-78
2023/08/07 11:38:09;;;;;;;8.57;1.92;;;;;;;;;;5010250;28;20048;-78
2023/08/07 11:40:35;;;;;;;13.60;2.50;;;;;;;;;;5015876;28;20046;-78
2023/08/07 11:43:02;;;;;;;7.82;1.80;;;;;;;;;;5016231;28;20046;-78
2023/08/07 11:45:28;;;;;;;8.65;2.28;;;;;;;;;;5016295;28;20038;-78
2023/08/07 11:47:59;;;;;;;5.65;1.63;;;;;;;;;;5012552;28;20412;-79
2023/08/07 11:50:25;;;;;;;7.40;1.70;;;;;;;;;;5015412;28;20042;-78
2023/08/07 11:52:51;;;;;;;8.02;1.75;;;;;;;;;;5013336;28;20417;-78
2023/08/07 11:55:18;;;;;;;11.20;2.15;;;;;;;;;;5014686;28;20514;-79
2023/08/07 11:57:47;;;;;;;8.13;1.73;;;;;;;;;;5016266;28;20054;-78
2023/08/07 12:00:14;;;;;;;8.00;1.88;;;;;;;;;;5013832;28;20784;-78
2023/08/07 12:02:43;;;;;;;10.10;2.35;;;;;;;;;;5014461;28;20046;-78
2023/08/07 12:05:11;;;;;;;8.68;1.73;;;;;;;;;;5009108;28;20046;-78
2023/08/07 12:07:37;;;;;;;8.07;1.73;;;;;;;;;;5012005;28;20077;-78
2023/08/07 12:10:04;;;;;;;7.85;1.92;;;;;;;;;;5015999;28;20057;-78
2023/08/07 12:12:33;;;;;;;9.98;1.85;;;;;;;;;;5017446;28;20089;-78
2023/08/07 12:15:00;;;;;;;7.15;1.98;;;;;;;;;;5013393;28;20063;-78
2023/08/07 12:17:26;;;;;;;6.93;1.63;;;;;;;;;;4996957;28;20070;-78
2023/08/07 12:19:52;;;;;;;7.43;2.03;;;;;;;;;;5014346;28;20045;-79
2023/08/07 12:22:21;;;;;;;9.00;2.13;;;;;;;;;;5014450;28;20050;-79
2023/08/07 12:24:47;;;;;;;9.88;2.20;;;;;;;;;;5015518;28;20169;-78
2023/08/07 12:27:13;;;;;;;5.93;1.90;;;;;;;;;;5011415;28;20113;-77
2023/08/07 12:29:39;;;;;;;9.27;2.00;;;;;;;;;;5014071;28;20049;-77
2023/08/07 12:32:05;;;;;;;7.15;2.00;;;;;;;;;;5015221;28;20132;-77
2023/08/07 12:34:32;;;;;;;7.63;2.08;;;;;;;;;;5016850;28;20408;-79
2023/08/07 12:36:58;;;;;;;7.90;2.40;;;;;;;;;;5014821;28;20048;-78
2023/08/07 12:39:24;;;;;;;8.02;2.17;;;;;;;;;;5013834;28;20736;-77
2023/08/07 12:41:50;;;;;;;10.45;2.15;;;;;;;;;;5015034;28;20053;-78
2023/08/07 12:44:17;;;;;;;8.90;2.33;;;;;;;;;;5014615;28;20049;-78
2023/08/07 12:46:43;;;;;;;6.90;2.00;;;;;;;;;;5014610;28;20065;-78
2023/08/07 12:49:09;;;;;;;10.93;2.80;;;;;;;;;;5018313;28;20049;-79
2023/08/07 12:51:36;;;;;;;8.35;2.58;;;;;;;;;;5016772;28;20041;-79
2023/08/07 12:54:02;;;;;;;11.85;2.30;;;;;;;;;;5016299;28;20076;-79
2023/08/07 12:56:28;;;;;;;9.65;2.05;;;;;;;;;;5013973;28;20064;-79
2023/08/07 12:58:54;;;;;;;9.10;2.63;;;;;;;;;;5016004;28;20050;-79
2023/08/07 13:01:20;;;;;;;8.82;2.00;;;;;;;;;;5016222;28;20065;-79
2023/08/07 13:03:46;;;;;;;7.82;1.90;;;;;;;;;;5016520;28;20045;-79
2023/08/07 13:06:12;;;;;;;11.05;2.28;;;;;;;;;;5017713;28;20489;-79
2023/08/07 13:08:38;;;;;;;7.57;1.98;;;;;;;;;;5015916;28;20409;-78
2023/08/07 13:11:04;;;;;;;8.48;2.00;;;;;;;;;;5016822;28;20085;-79
2023/08/07 13:13:30;;;;;;;10.52;2.50;;;;;;;;;;5016473;28;20446;-79
2023/08/07 13:15:57;;;;;;;6.88;1.65;;;;;;;;;;5015915;28;20053;-79
2023/08/07 13:18:23;;;;;;;7.80;1.88;;;;;;;;;;5015314;28;20092;-80
2023/08/07 13:20:49;;;;;;;5.72;1.70;;;;;;;;;;5015524;28;20053;-80
2023/08/07 13:23:15;;;;;;;5.95;1.98;;;;;;;;;;5011622;28;20417;-79
2023/08/07 13:25:41;;;;;;;7.65;2.30;;;;;;;;;;4998316;28;20039;-79
2023/08/07 13:28:07;;;;;;;7.43;1.80;;;;;;;;;;4996847;28;20503;-78
2023/08/07 13:30:34;;;;;;;9.00;2.00;;;;;;;;;;5014273;28;20049;-78
2023/08/07 13:33:00;;;;;;;7.20;1.90;;;;;;;;;;5016445;28;20496;-78
2023/08/07 13:35:26;;;;;;;7.22;1.98;;;;;;;;;;5015206;28;20042;-78
2023/08/07 13:37:52;;;;;;;10.02;1.80;;;;;;;;;;5015411;28;20042;-78
2023/08/07 13:40:18;;;;;;;8.95;2.22;;;;;;;;;;5014529;28;20165;-78
2023/08/07 13:42:45;;;;;;;6.18;2.15;;;;;;;;;;5015520;28;20500;-79
2023/08/07 13:45:11;;;;;;;6.30;1.90;;;;;;;;;;5014545;28;20148;-78
2023/08/07 13:47:37;;;;;;;7.18;2.55;;;;;;;;;;5012978;28;20082;-78
2023/08/07 13:50:04;;;;;;;7.78;2.00;;;;;;;;;;5013987;28;20516;-78
2023/08/07 13:52:30;;;;;;;7.80;2.20;;;;;;;;;;5014257;28;20168;-78
2023/08/07 13:54:56;;;;;;;8.57;1.98;;;;;;;;;;5014521;28;20496;-78
2023/08/07 13:57:22;;;;;;;9.57;2.05;;;;;;;;;;5013443;28;20103;-78
2023/08/07 13:59:48;;;;;;;8.50;2.53;;;;;;;;;;5013660;28;20045;-78
2023/08/07 14:02:14;;;;;;;7.95;1.98;;;;;;;;;;5014097;28;20038;-78
2023/08/07 14:04:45;;;;;;;6.10;2.08;;;;;;;;;;5013961;28;20077;-79
2023/08/07 14:07:11;;;;;;;6.05;2.10;;;;;;;;;;5011687;28;20157;-78
2023/08/07 14:09:37;;;;;;;6.75;2.25;;;;;;;;;;5013482;28;20064;-77
2023/08/07 14:12:03;;;;;;;7.85;2.22;;;;;;;;;;5027789;28;20492;-79
2023/08/07 14:14:29;;;;;;;9.02;2.35;;;;;;;;;;5014211;28;20353;-78
2023/08/07 14:17:00;;;;;;;6.93;2.08;;;;;;;;;;5013969;28;20058;-77
2023/08/07 14:19:26;;;;;;;11.55;2.80;;;;;;;;;;5013901;28;20041;-78
2023/08/07 14:21:52;;;;;;;7.53;2.22;;;;;;;;;;5013810;28;20077;-78
2023/08/07 14:24:18;;;;;;;7.38;2.30;;;;;;;;;;5013243;28;20512;-77
2023/08/07 14:26:44;;;;;;;8.80;2.35;;;;;;;;;;5012474;28;20432;-78
2023/08/07 14:29:11;;;;;;;8.07;2.50;;;;;;;;;;5012961;28;20057;-78
2023/08/07 14:31:37;;;;;;;8.35;2.38;;;;;;;;;;5013112;28;20038;-78